createdAt,value
2018-12-27T00:01:13.808Z,6.46
2018-12-27T00:03:44.569Z,6.48
2018-12-27T00:06:15.371Z,6.54
2018-12-27T00:08:46.191Z,6.55
2018-12-27T00:11:16.980Z,6.57
2018-12-27T00:13:47.762Z,6.66
2018-12-27T00:16:18.588Z,6.84
2018-12-27T00:18:49.363Z,6.73
2018-12-27T00:21:20.120Z,6.64
2018-12-27T00:23:50.907Z,6.79
2018-12-27T00:26:21.685Z,6.72
2018-12-27T00:28:52.434Z,6.71
2018-12-27T00:31:23.392Z,6.71
2018-12-27T00:33:54.348Z,6.83
2018-12-27T00:36:25.376Z,6.81
2018-12-27T00:38:56.336Z,6.78
2018-12-27T00:41:27.332Z,6.70
2018-12-27T00:43:58.344Z,6.68
2018-12-27T00:46:29.420Z,6.65
2018-12-27T00:49:00.436Z,6.65
2018-12-27T00:51:31.405Z,6.62
2018-12-27T00:54:02.386Z,6.66
2018-12-27T00:56:33.504Z,6.66
2018-12-27T00:59:04.468Z,6.57
2018-12-27T01:01:35.456Z,6.54
2018-12-27T01:04:06.396Z,6.48
2018-12-27T01:06:37.384Z,6.46
2018-12-27T01:09:08.482Z,6.44
2018-12-27T01:11:39.505Z,6.46
2018-12-27T01:14:10.472Z,6.42
2018-12-27T01:16:41.510Z,6.47
2018-12-27T01:19:12.501Z,6.48
2018-12-27T01:21:43.564Z,6.51
2018-12-27T01:24:14.542Z,6.53
2018-12-27T01:26:46.418Z,6.59
2018-12-27T01:29:17.431Z,6.61
2018-12-27T01:31:50.755Z,6.61
2018-12-27T01:34:21.219Z,6.61
2018-12-27T01:36:52.671Z,6.67
2018-12-27T01:39:23.763Z,6.74
2018-12-27T01:41:54.767Z,6.69
2018-12-27T01:44:25.863Z,6.67
2018-12-27T01:46:56.967Z,6.59
2018-12-27T01:49:28.093Z,6.63
2018-12-27T01:51:59.079Z,6.56
2018-12-27T01:54:30.046Z,6.56
2018-12-27T01:57:01.145Z,6.61
2018-12-27T01:59:32.130Z,6.56
2018-12-27T02:02:03.100Z,6.53
2018-12-27T02:04:34.183Z,6.54
2018-12-27T02:07:05.198Z,6.52
2018-12-27T02:09:36.215Z,6.57
2018-12-27T02:12:07.329Z,6.59
2018-12-27T02:14:38.291Z,6.51
2018-12-27T02:17:09.411Z,6.51
2018-12-27T02:19:40.504Z,6.54
2018-12-27T02:22:11.551Z,6.53
2018-12-27T02:24:42.597Z,6.64
2018-12-27T02:27:13.586Z,6.62
2018-12-27T02:29:44.709Z,6.60
2018-12-27T02:32:15.732Z,6.61
2018-12-27T02:34:46.855Z,6.55
2018-12-27T02:37:17.801Z,6.53
2018-12-27T02:39:48.880Z,6.63
2018-12-27T02:42:19.865Z,6.75
2018-12-27T02:44:50.915Z,6.68
2018-12-27T02:47:21.896Z,6.65
2018-12-27T02:49:52.935Z,6.60
2018-12-27T02:52:23.942Z,6.65
2018-12-27T02:54:55.087Z,6.76
2018-12-27T02:57:29.610Z,6.76
2018-12-27T03:00:00.723Z,6.71
2018-12-27T03:02:31.804Z,6.67
2018-12-27T03:05:02.860Z,6.67
2018-12-27T03:07:33.971Z,6.68
2018-12-27T03:10:05.198Z,6.69
2018-12-27T03:12:36.311Z,6.72
2018-12-27T03:15:08.441Z,6.67
2018-12-27T03:17:39.470Z,6.64
2018-12-27T03:20:10.548Z,6.61
2018-12-27T03:22:41.686Z,6.70
2018-12-27T03:25:12.682Z,6.70
2018-12-27T03:27:43.772Z,6.67
2018-12-27T03:30:14.834Z,6.64
2018-12-27T03:32:45.863Z,6.65
2018-12-27T03:35:16.906Z,6.65
2018-12-27T03:37:48.423Z,6.65
2018-12-27T03:40:19.419Z,6.63
2018-12-27T03:42:50.514Z,6.69
2018-12-27T03:45:21.564Z,6.70
2018-12-27T03:47:52.648Z,6.65
2018-12-27T03:50:23.703Z,6.67
2018-12-27T03:52:56.210Z,6.65
2018-12-27T03:55:27.601Z,6.66
2018-12-27T03:57:58.997Z,6.69
2018-12-27T04:00:30.061Z,6.63
2018-12-27T04:03:01.133Z,6.61
2018-12-27T04:05:32.171Z,6.58
2018-12-27T04:08:03.219Z,6.62
2018-12-27T04:10:34.207Z,6.50
2018-12-27T04:13:05.214Z,6.50
2018-12-27T04:15:36.201Z,6.46
2018-12-27T04:18:07.116Z,6.48
2018-12-27T04:20:37.943Z,6.54
2018-12-27T04:23:08.949Z,6.48
2018-12-27T04:25:39.823Z,6.44
2018-12-27T04:28:10.774Z,6.44
2018-12-27T04:30:42.113Z,6.52
2018-12-27T04:33:19.551Z,6.56
2018-12-27T04:35:54.074Z,6.51
2018-12-27T04:38:24.912Z,6.49
2018-12-27T04:40:55.772Z,6.51
2018-12-27T04:43:27.649Z,6.57
2018-12-27T04:45:58.471Z,6.57
2018-12-27T04:48:29.425Z,6.56
2018-12-27T04:51:00.323Z,6.58
2018-12-27T04:53:32.241Z,6.57
2018-12-27T04:56:03.087Z,6.59
2018-12-27T04:58:34.033Z,6.62
2018-12-27T05:01:04.891Z,6.57
2018-12-27T05:03:35.945Z,6.63
2018-12-27T05:06:11.559Z,6.56
2018-12-27T05:08:43.018Z,6.47
2018-12-27T05:11:16.737Z,6.42
2018-12-27T05:13:47.649Z,6.39
2018-12-27T05:16:18.652Z,6.42
2018-12-27T05:18:49.511Z,6.50
2018-12-27T05:21:20.334Z,6.46
2018-12-27T05:23:51.189Z,6.44
2018-12-27T05:26:21.985Z,6.40
2018-12-27T05:28:52.781Z,6.40
2018-12-27T05:31:23.622Z,6.34
2018-12-27T05:33:54.490Z,6.32
2018-12-27T05:36:25.518Z,6.34
2018-12-27T05:38:56.370Z,6.37
2018-12-27T05:41:27.207Z,6.34
2018-12-27T05:43:58.046Z,6.35
2018-12-27T05:46:28.858Z,6.39
2018-12-27T05:49:00.719Z,6.39
2018-12-27T05:51:31.562Z,6.47
2018-12-27T05:54:02.465Z,6.52
2018-12-27T05:56:33.246Z,6.52
2018-12-27T05:59:04.219Z,6.55
2018-12-27T06:01:35.102Z,6.50
2018-12-27T06:04:05.915Z,6.52
2018-12-27T06:06:36.747Z,6.57
2018-12-27T06:09:08.988Z,6.60
2018-12-27T06:11:39.874Z,6.67
2018-12-27T06:14:10.767Z,6.62
2018-12-27T06:16:44.602Z,6.71
2018-12-27T06:19:15.474Z,6.54
2018-12-27T06:21:52.114Z,6.50
2018-12-27T06:24:23.030Z,6.50
2018-12-27T06:26:53.862Z,6.44
2018-12-27T06:29:25.698Z,6.42
2018-12-27T06:31:56.522Z,6.43
2018-12-27T06:34:27.443Z,6.43
2018-12-27T06:36:58.323Z,6.40
2018-12-27T06:39:29.172Z,6.42
2018-12-27T06:42:00.097Z,6.49
2018-12-27T06:44:31.002Z,6.49
2018-12-27T06:47:01.822Z,6.52
2018-12-27T06:49:32.665Z,6.60
2018-12-27T06:52:03.490Z,6.62
2018-12-27T06:54:34.316Z,6.68
2018-12-27T06:57:05.097Z,6.58
2018-12-27T06:59:35.873Z,6.65
2018-12-27T07:02:06.833Z,6.64
2018-12-27T07:04:37.670Z,6.68
2018-12-27T07:07:08.418Z,6.64
2018-12-27T07:09:39.191Z,6.62
2018-12-27T07:12:09.982Z,6.62
2018-12-27T07:14:40.726Z,6.62
2018-12-27T07:17:11.564Z,6.69
2018-12-27T07:19:42.401Z,6.74
2018-12-27T07:22:13.252Z,6.77
2018-12-27T07:24:44.038Z,6.79
2018-12-27T07:27:15.026Z,6.87
2018-12-27T07:29:45.994Z,6.80
2018-12-27T07:32:24.238Z,6.95
2018-12-27T07:35:14.781Z,6.80
2018-12-27T07:37:45.844Z,6.81
2018-12-27T07:40:16.958Z,6.73
2018-12-27T07:42:47.867Z,6.73
2018-12-27T07:45:18.949Z,6.72
2018-12-27T07:47:49.953Z,6.81
2018-12-27T07:50:21.287Z,6.86
2018-12-27T07:52:52.560Z,6.79
2018-12-27T07:55:23.653Z,6.78
2018-12-27T07:57:56.792Z,6.79
2018-12-27T08:00:30.071Z,6.80
2018-12-27T08:04:12.113Z,6.77
2018-12-27T08:07:36.478Z,6.86
2018-12-27T08:10:14.568Z,6.93
2018-12-27T08:17:21.352Z,6.83
2018-12-27T08:20:39.125Z,5.63
2018-12-27T08:23:11.401Z,6.86
2018-12-27T08:28:56.870Z,6.73
2018-12-27T08:32:47.853Z,6.72
2018-12-27T08:35:30.559Z,6.83
2018-12-27T08:38:04.213Z,6.67
2018-12-27T08:40:51.437Z,6.53
2018-12-27T08:43:30.105Z,6.37
2018-12-27T08:46:09.665Z,6.24
2018-12-27T08:48:55.477Z,6.16
2018-12-27T08:51:27.501Z,6.22
2018-12-27T08:53:58.770Z,6.00
2018-12-27T08:56:30.738Z,5.90
2018-12-27T08:59:02.138Z,5.89
2018-12-27T09:01:34.144Z,5.83
2018-12-27T09:04:05.033Z,5.79
2018-12-27T09:06:35.997Z,5.83
2018-12-27T09:09:09.479Z,5.74
2018-12-27T09:11:40.301Z,5.72
2018-12-27T09:14:15.157Z,5.72
2018-12-27T09:16:47.214Z,5.68
2018-12-27T09:19:24.656Z,5.81
2018-12-27T09:21:58.328Z,5.74
2018-12-27T09:24:35.103Z,5.72
2018-12-27T09:27:18.797Z,5.75
2018-12-27T09:29:49.572Z,5.77
2018-12-27T09:32:20.418Z,5.86
2018-12-27T09:34:51.288Z,5.92
2018-12-27T09:37:22.099Z,6.16
2018-12-27T09:39:52.897Z,6.24
2018-12-27T09:42:23.748Z,6.33
2018-12-27T09:44:54.576Z,6.49
2018-12-27T09:47:25.432Z,6.74
2018-12-27T09:49:56.232Z,6.98
2018-12-27T09:52:27.024Z,7.10
2018-12-27T09:54:57.818Z,7.13
2018-12-27T09:57:28.647Z,7.21
2018-12-27T09:59:59.438Z,7.32
2018-12-27T10:02:30.310Z,7.29
2018-12-27T10:05:01.113Z,7.42
2018-12-27T10:07:33.152Z,7.44
2018-12-27T10:10:04.192Z,7.36
2018-12-27T10:12:35.058Z,7.26
2018-12-27T10:15:06.931Z,7.23
2018-12-27T10:17:37.724Z,7.24
2018-12-27T10:20:09.056Z,7.35
2018-12-27T10:22:39.877Z,7.49
2018-12-27T10:25:10.708Z,7.60
2018-12-27T10:27:41.564Z,7.64
2018-12-27T10:30:12.328Z,7.63
2018-12-27T10:32:43.186Z,7.63
2018-12-27T10:35:14.099Z,7.45
2018-12-27T10:37:44.905Z,7.48
2018-12-27T10:40:15.776Z,7.54
2018-12-27T10:42:46.552Z,7.55
2018-12-27T10:45:17.407Z,7.62
2018-12-27T10:47:48.222Z,7.72
2018-12-27T10:50:19.038Z,7.92
2018-12-27T10:52:49.965Z,8.02
2018-12-27T10:55:20.746Z,8.16
2018-12-27T10:57:51.540Z,8.16
2018-12-27T11:00:22.383Z,8.14
2018-12-27T11:02:53.220Z,8.26
2018-12-27T11:05:24.009Z,8.25
2018-12-27T11:07:59.352Z,8.25
2018-12-27T11:10:30.144Z,8.38
2018-12-27T11:13:00.966Z,8.35
2018-12-27T11:15:31.824Z,8.42
2018-12-27T11:18:02.663Z,8.36
2018-12-27T11:20:33.465Z,8.46
2018-12-27T11:23:04.320Z,8.38
2018-12-27T11:25:35.078Z,8.33
2018-12-27T11:28:05.945Z,8.45
2018-12-27T11:30:36.784Z,8.55
2018-12-27T11:33:07.648Z,8.53
2018-12-27T11:35:38.491Z,8.61
2018-12-27T11:38:09.438Z,8.59
2018-12-27T11:40:40.295Z,8.51
2018-12-27T11:43:11.090Z,8.53
2018-12-27T11:45:41.884Z,8.48
2018-12-27T11:48:12.683Z,8.47
2018-12-27T11:50:43.575Z,8.20
2018-12-27T11:53:14.370Z,8.40
2018-12-27T11:55:45.378Z,8.35
2018-12-27T11:58:16.193Z,8.21
2018-12-27T12:00:47.147Z,8.14
2018-12-27T12:03:17.915Z,8.12
2018-12-27T12:05:48.815Z,8.12
2018-12-27T12:08:19.673Z,8.14
2018-12-27T12:10:50.561Z,8.13
2018-12-27T12:13:21.461Z,8.04
2018-12-27T12:15:52.268Z,8.08
2018-12-27T12:18:23.090Z,8.13
2018-12-27T12:20:53.935Z,8.20
2018-12-27T12:23:24.750Z,8.31
2018-12-27T12:25:55.558Z,8.21
2018-12-27T12:28:28.589Z,8.20
2018-12-27T12:30:59.251Z,8.31
2018-12-27T12:33:30.071Z,8.13
2018-12-27T12:36:39.771Z,8.14
2018-12-27T12:39:16.535Z,8.10
2018-12-27T12:42:15.601Z,8.11
2018-12-27T12:52:52.255Z,8.15
2018-12-27T12:57:11.587Z,7.87
2018-12-27T12:59:51.720Z,7.79
2018-12-27T13:02:59.405Z,7.92
2018-12-27T13:06:00.607Z,7.85
2018-12-27T13:08:37.103Z,7.90
2018-12-27T15:05:02.842Z,6.93
2018-12-27T15:07:37.057Z,6.79
2018-12-27T15:10:10.323Z,6.80
2018-12-27T15:12:41.740Z,6.76
2018-12-27T15:15:12.658Z,6.75
2018-12-27T15:17:43.941Z,6.74
2018-12-27T15:20:15.168Z,6.74
2018-12-27T15:22:46.785Z,6.83
2018-12-27T15:25:18.098Z,6.74
2018-12-27T15:27:51.873Z,6.78
2018-12-27T15:30:23.129Z,6.83
2018-12-27T15:32:54.045Z,6.86
2018-12-27T15:35:25.318Z,6.81
2018-12-27T15:37:57.342Z,6.80
2018-12-27T15:40:28.687Z,6.88
2018-12-27T15:43:02.299Z,6.91
2018-12-27T15:45:35.086Z,6.87
2018-12-27T15:48:07.324Z,7.09
2018-12-27T15:50:38.229Z,7.02
2018-12-27T15:53:09.068Z,6.94
2018-12-27T15:55:39.909Z,6.87
2018-12-27T15:58:12.383Z,6.83
2018-12-27T16:00:43.484Z,7.03
2018-12-27T16:03:14.840Z,6.97
2018-12-27T16:05:45.998Z,6.80
2018-12-27T16:08:16.829Z,6.93
2018-12-27T16:10:50.601Z,6.85
2018-12-27T16:13:24.822Z,6.90
2018-12-27T16:15:55.648Z,7.02
2018-12-27T16:18:26.531Z,7.02
2018-12-27T16:20:57.982Z,6.96
2018-12-27T16:23:31.724Z,7.05
2018-12-27T16:26:07.769Z,7.00
2018-12-27T16:28:38.946Z,7.05
2018-12-27T16:31:09.812Z,7.22
2018-12-27T16:33:40.580Z,7.10
2018-12-27T16:36:11.384Z,7.08
2018-12-27T16:38:42.502Z,7.06
2018-12-27T16:41:13.318Z,7.07
2018-12-27T16:43:44.222Z,6.94
2018-12-27T16:46:15.058Z,6.94
2018-12-27T16:48:45.906Z,7.00
2018-12-27T16:51:16.722Z,7.00
2018-12-27T16:53:47.538Z,7.08
2018-12-27T16:56:18.414Z,7.01
2018-12-27T16:58:49.236Z,6.97
2018-12-27T17:01:20.102Z,7.00
2018-12-27T17:03:50.862Z,7.04
2018-12-27T17:06:21.746Z,7.02
2018-12-27T17:08:52.580Z,7.01
2018-12-27T17:11:23.501Z,6.98
2018-12-27T17:13:54.356Z,6.93
2018-12-27T17:16:25.134Z,6.99
2018-12-27T17:18:55.991Z,6.91
2018-12-27T17:21:26.802Z,6.92
2018-12-27T17:23:57.766Z,7.00
2018-12-27T17:26:28.582Z,7.12
2018-12-27T17:28:59.650Z,6.99
2018-12-27T17:31:30.639Z,6.94
2018-12-27T17:34:03.230Z,7.03
2018-12-27T17:36:34.094Z,7.02
2018-12-27T17:39:07.420Z,7.03
2018-12-27T17:41:38.382Z,7.03
2018-12-27T17:44:12.092Z,6.97
2018-12-27T17:46:43.094Z,6.93
2018-12-27T17:49:14.095Z,7.02
2018-12-27T17:51:44.925Z,7.04
2018-12-27T17:54:16.030Z,6.97
2018-12-27T17:56:46.955Z,7.01
2018-12-27T17:59:17.851Z,7.19
2018-12-27T18:01:48.820Z,7.02
2018-12-27T18:04:27.513Z,6.97
2018-12-27T18:06:58.375Z,7.00
2018-12-27T18:09:31.313Z,7.00
2018-12-27T18:12:02.377Z,6.94
2018-12-27T18:14:33.605Z,6.90
2018-12-27T18:17:04.736Z,6.87
2018-12-27T18:19:36.815Z,6.94
2018-12-27T18:22:08.239Z,6.99
2018-12-27T18:24:43.729Z,6.99
2018-12-27T18:27:15.742Z,6.96
2018-12-27T18:29:50.061Z,6.91
2018-12-27T18:32:21.031Z,6.94
2018-12-27T18:34:55.819Z,6.99
2018-12-27T18:37:26.830Z,7.07
2018-12-27T18:39:57.919Z,7.02
2018-12-27T18:42:34.277Z,6.96
2018-12-27T18:45:05.309Z,6.96
2018-12-27T18:47:38.173Z,6.96
2018-12-27T18:50:09.265Z,7.01
2018-12-27T18:52:40.150Z,6.98
2018-12-27T18:55:19.769Z,6.87
2018-12-27T18:57:45.431Z,6.89
2018-12-27T19:00:17.224Z,6.90
2018-12-27T19:02:48.033Z,6.92
2018-12-27T19:05:19.332Z,6.96
2018-12-27T19:07:50.267Z,6.97
2018-12-27T19:10:21.462Z,6.91
2018-12-27T19:13:13.527Z,6.97
2018-12-27T19:16:03.647Z,6.99
2018-12-27T19:18:47.995Z,6.94
2018-12-27T19:21:57.431Z,6.91
2018-12-27T19:24:31.326Z,6.91
2018-12-27T19:27:02.463Z,6.93
2018-12-27T19:29:33.718Z,6.97
2018-12-27T19:32:04.614Z,7.13
2018-12-27T19:34:35.946Z,7.12
2018-12-27T19:37:07.256Z,7.12
2018-12-27T19:39:40.196Z,6.98
2018-12-27T19:42:12.556Z,6.97
2018-12-27T19:44:43.912Z,7.02
2018-12-27T19:47:14.995Z,6.95
2018-12-27T19:49:45.928Z,7.08
2018-12-27T19:52:17.077Z,7.07
2018-12-27T19:54:48.617Z,7.11
2018-12-27T19:57:19.676Z,7.08
2018-12-27T19:59:50.725Z,6.92
2018-12-27T20:02:21.565Z,6.98
2018-12-27T20:04:52.576Z,7.01
2018-12-27T20:07:23.473Z,6.98
2018-12-27T20:09:54.657Z,6.97
2018-12-27T20:12:45.996Z,6.99
2018-12-27T20:15:16.910Z,6.82
2018-12-27T20:17:47.810Z,6.98
2018-12-27T20:20:18.632Z,6.87
2018-12-27T20:22:49.637Z,6.85
2018-12-27T20:25:22.953Z,6.66
2018-12-27T20:27:53.779Z,6.75
2018-12-27T20:30:24.623Z,6.75
2018-12-27T20:32:55.564Z,6.74
2018-12-27T20:35:26.660Z,6.78
2018-12-27T20:37:57.976Z,6.80
2018-12-27T20:40:29.196Z,6.77
2018-12-27T20:43:00.262Z,6.65
2018-12-27T20:45:31.255Z,6.66
2018-12-27T20:48:03.689Z,6.70
2018-12-27T20:50:34.757Z,6.67
2018-12-27T20:53:05.780Z,6.78
2018-12-27T20:55:38.510Z,6.73
2018-12-27T20:58:09.462Z,6.87
2018-12-27T21:00:40.510Z,6.96
2018-12-27T21:03:11.544Z,6.76
2018-12-27T21:05:42.404Z,6.79
2018-12-27T21:08:14.190Z,6.87
2018-12-27T21:10:45.247Z,6.83
2018-12-27T21:13:16.031Z,6.78
2018-12-27T21:15:46.807Z,6.73
2018-12-27T21:18:17.568Z,6.72
2018-12-27T21:20:48.359Z,6.83
2018-12-27T21:23:19.234Z,6.81
2018-12-27T21:25:50.088Z,6.78
2018-12-27T21:28:20.832Z,6.78
2018-12-27T21:30:51.676Z,6.73
2018-12-27T21:33:22.528Z,6.72
2018-12-27T21:35:53.304Z,6.67
2018-12-27T21:38:24.105Z,6.66
2018-12-27T21:40:54.866Z,6.69
2018-12-27T21:43:25.731Z,6.66
2018-12-27T21:45:56.742Z,6.57
2018-12-27T21:48:27.535Z,6.57
2018-12-27T21:50:58.355Z,6.58
2018-12-27T21:53:29.189Z,6.50
2018-12-27T21:55:59.994Z,6.52
2018-12-27T21:58:30.809Z,6.48
2018-12-27T22:01:01.638Z,6.42
2018-12-27T22:03:32.568Z,6.42
2018-12-27T22:06:03.428Z,6.42
2018-12-27T22:08:34.382Z,6.35
2018-12-27T22:11:05.252Z,6.51
2018-12-27T22:13:39.083Z,6.30
2018-12-27T22:16:09.991Z,6.37
2018-12-27T22:18:40.822Z,6.39
2018-12-27T22:21:11.597Z,6.38
2018-12-27T22:23:42.463Z,6.42
2018-12-27T22:26:13.207Z,6.29
2018-12-27T22:28:43.989Z,6.24
2018-12-27T22:31:14.759Z,6.32
2018-12-27T22:33:45.531Z,6.38
2018-12-27T22:36:16.335Z,6.43
2018-12-27T22:38:47.131Z,6.36
2018-12-27T22:41:17.927Z,6.41
2018-12-27T22:43:48.731Z,6.41
2018-12-27T22:46:19.484Z,6.32
2018-12-27T22:48:50.329Z,6.36
2018-12-27T22:51:21.494Z,6.34
2018-12-27T22:53:52.359Z,6.27
2018-12-27T22:56:23.197Z,6.37
2018-12-27T22:58:53.975Z,6.30
2018-12-27T23:01:25.034Z,6.20
2018-12-27T23:03:55.827Z,6.38
2018-12-27T23:06:26.667Z,6.29
2018-12-27T23:08:57.500Z,6.30
2018-12-27T23:11:28.403Z,6.23
2018-12-27T23:13:59.217Z,6.23
2018-12-27T23:16:30.098Z,6.22
2018-12-27T23:19:00.857Z,6.27
2018-12-27T23:21:31.684Z,6.22
2018-12-27T23:24:02.436Z,6.21
2018-12-27T23:26:33.264Z,6.31
2018-12-27T23:29:04.105Z,6.23
2018-12-27T23:31:34.860Z,6.21
2018-12-27T23:34:05.663Z,6.22
2018-12-27T23:36:37.998Z,6.23
2018-12-27T23:39:09.593Z,6.28
2018-12-27T23:41:40.349Z,6.27
2018-12-27T23:44:11.158Z,6.18
2018-12-27T23:46:41.931Z,6.34
2018-12-27T23:49:12.750Z,6.41
2018-12-27T23:51:43.622Z,6.28
2018-12-27T23:54:14.478Z,6.35
2018-12-27T23:56:45.276Z,6.28
2018-12-27T23:59:16.126Z,6.26
